createdAt,value
2018-09-07T00:00:42.060Z,99777.81
2018-09-07T00:01:47.562Z,99772.10
2018-09-07T00:02:53.835Z,99770.24
2018-09-07T00:04:00.535Z,99770.06
2018-09-07T00:05:06.387Z,99760.87
2018-09-07T00:06:12.325Z,99759.14
2018-09-07T00:07:18.536Z,99757.30
2018-09-07T00:08:24.778Z,99755.52
2018-09-07T00:09:30.814Z,99755.31
2018-09-07T00:10:36.819Z,99763.17
2018-09-07T00:11:42.768Z,99769.77
2018-09-07T00:12:48.799Z,99767.52
2018-09-07T00:13:55.056Z,99761.94
2018-09-07T00:15:01.503Z,99767.73
2018-09-07T00:16:07.272Z,99767.02
2018-09-07T00:17:13.465Z,99767.84
2018-09-07T00:18:19.494Z,99766.28
2018-09-07T00:19:25.732Z,99773.56
2018-09-07T00:20:31.992Z,99761.35
2018-09-07T00:21:38.211Z,99766.01
2018-09-07T00:22:44.408Z,99765.64
2018-09-07T00:23:50.021Z,99757.39
2018-09-07T00:24:55.917Z,99759.63
2018-09-07T00:26:02.101Z,99752.77
2018-09-07T00:27:08.017Z,99750.30
2018-09-07T00:28:14.267Z,99750.67
2018-09-07T00:29:20.501Z,99750.52
2018-09-07T00:30:26.737Z,99749.55
2018-09-07T00:31:32.355Z,99747.77
2018-09-07T00:32:38.599Z,99740.98
2018-09-07T00:33:44.620Z,99745.44
2018-09-07T00:34:50.865Z,99745.50
2018-09-07T00:35:57.109Z,99747.18
2018-09-07T00:37:03.361Z,99749.78
2018-09-07T00:38:09.804Z,99746.09
2018-09-07T00:39:16.030Z,99749.56
2018-09-07T00:40:22.266Z,99750.02
2018-09-07T00:41:28.509Z,99750.81
2018-09-07T00:42:34.766Z,99745.67
2018-09-07T00:43:40.733Z,99752.62
2018-09-07T00:44:46.977Z,99754.95
2018-09-07T00:45:52.894Z,99751.30
2018-09-07T00:46:59.170Z,99750.92
2018-09-07T00:48:04.753Z,99753.84
2018-09-07T00:49:11.019Z,99751.92
2018-09-07T00:50:17.312Z,99754.05
2018-09-07T00:51:23.582Z,99754.24
2018-09-07T00:52:29.840Z,99755.31
2018-09-07T00:53:36.107Z,99754.89
2018-09-07T00:54:42.365Z,99762.72
2018-09-07T00:55:48.824Z,99763.50
2018-09-07T00:56:54.776Z,99767.16
2018-09-07T00:58:01.024Z,99765.22
2018-09-07T00:59:07.300Z,99771.58
2018-09-07T01:00:13.632Z,99773.95
2018-09-07T01:01:19.645Z,99778.28
2018-09-07T01:02:24.861Z,99781.31
2018-09-07T01:03:31.160Z,99783.20
2018-09-07T01:04:37.417Z,99783.04
2018-09-07T01:05:42.972Z,99788.00
2018-09-07T01:06:49.235Z,99791.29
2018-09-07T01:07:55.235Z,99796.13
2018-09-07T01:09:01.242Z,99799.27
2018-09-07T01:10:06.524Z,99806.22
2018-09-07T01:11:12.172Z,99799.46
2018-09-07T01:12:18.100Z,99803.19
2018-09-07T01:13:24.382Z,99805.71
2018-09-07T01:14:30.728Z,99806.25
2018-09-07T01:15:36.729Z,99812.27
2018-09-07T01:16:42.967Z,99809.02
2018-09-07T01:17:48.867Z,99815.13
2018-09-07T01:18:54.825Z,99822.56
2018-09-07T01:20:01.125Z,99820.53
2018-09-07T01:21:07.355Z,99825.01
2018-09-07T01:22:13.274Z,99824.14
2018-09-07T01:23:19.249Z,99821.06
2018-09-07T01:24:25.512Z,99825.01
2018-09-07T01:25:31.760Z,99826.25
2018-09-07T01:26:37.738Z,99827.91
2018-09-07T01:27:44.015Z,99829.00
2018-09-07T01:28:50.021Z,99835.39
2018-09-07T01:29:56.277Z,99830.31
2018-09-07T01:31:02.285Z,99828.28
2018-09-07T01:32:08.506Z,99826.28
2018-09-07T01:33:14.753Z,99827.70
2018-09-07T01:34:20.557Z,99832.66
2018-09-07T01:35:26.567Z,99829.89
2018-09-07T01:36:32.781Z,99832.27
2018-09-07T01:37:38.820Z,99827.13
2018-09-07T01:38:45.705Z,99825.97
2018-09-07T01:39:51.968Z,99827.59
2018-09-07T01:40:58.200Z,99821.27
2018-09-07T01:42:04.476Z,99828.75
2018-09-07T01:43:10.729Z,99828.23
2018-09-07T01:44:17.021Z,99829.33
2018-09-07T01:45:23.251Z,99826.08
2018-09-07T01:46:29.556Z,99826.95
2018-09-07T01:47:35.815Z,99830.38
2018-09-07T01:48:42.065Z,99824.76
2018-09-07T01:49:48.321Z,99821.59
2018-09-07T01:50:54.342Z,99818.89
2018-09-07T01:52:00.743Z,99816.83
2018-09-07T01:53:07.067Z,99814.79
2018-09-07T01:54:13.051Z,99814.20
2018-09-07T01:55:19.025Z,99817.45
2018-09-07T01:56:25.258Z,99814.67
2018-09-07T01:57:31.535Z,99814.59
2018-09-07T01:58:37.780Z,99816.54
2018-09-07T01:59:43.429Z,99810.09
2018-09-07T02:00:49.448Z,99801.22
2018-09-07T02:01:55.653Z,99808.05
2018-09-07T02:03:01.657Z,99803.11
2018-09-07T02:04:07.740Z,99802.93
2018-09-07T02:05:13.279Z,99803.53
2018-09-07T02:06:19.260Z,99805.17
2018-09-07T02:07:25.501Z,99798.29
2018-09-07T02:08:31.736Z,99802.47
2018-09-07T02:09:38.056Z,99800.55
2018-09-07T02:10:45.174Z,99798.44
2018-09-07T02:11:51.420Z,99798.66
2018-09-07T02:12:57.646Z,99798.91
2018-09-07T02:14:03.649Z,99800.67
2018-09-07T02:15:09.934Z,99804.46
2018-09-07T02:16:16.228Z,99800.73
2018-09-07T02:17:22.467Z,99801.70
2018-09-07T02:18:28.107Z,99808.70
2018-09-07T02:19:34.364Z,99807.11
2018-09-07T02:20:40.035Z,99805.41
2018-09-07T02:21:46.298Z,99803.06
2018-09-07T02:22:52.541Z,99797.67
2018-09-07T02:23:58.793Z,99798.78
2018-09-07T02:25:04.388Z,99803.75
2018-09-07T02:26:10.264Z,99800.51
2018-09-07T02:27:16.505Z,99804.17
2018-09-07T02:28:22.496Z,99795.26
2018-09-07T02:29:28.805Z,99806.49
2018-09-07T02:30:35.079Z,99805.70
2018-09-07T02:31:41.368Z,99801.47
2018-09-07T02:32:47.613Z,99813.13
2018-09-07T02:33:53.858Z,99810.24
2018-09-07T02:35:00.169Z,99807.70
2018-09-07T02:36:05.859Z,99805.78
2018-09-07T02:37:11.822Z,99808.52
2018-09-07T02:38:17.713Z,99808.38
2018-09-07T02:39:23.966Z,99813.04
2018-09-07T02:40:30.242Z,99813.97
2018-09-07T02:41:37.061Z,99808.92
2018-09-07T02:42:43.287Z,99813.36
2018-09-07T02:43:49.623Z,99815.30
2018-09-07T02:44:55.637Z,99815.36
2018-09-07T02:46:01.925Z,99818.02
2018-09-07T02:47:07.899Z,99807.80
2018-09-07T02:48:14.173Z,99818.15
2018-09-07T02:49:19.816Z,99817.50
2018-09-07T02:50:26.085Z,99811.91
2018-09-07T02:51:32.125Z,99816.18
2018-09-07T02:52:38.371Z,99814.56
2018-09-07T02:53:44.605Z,99814.06
2018-09-07T02:54:50.644Z,99814.75
2018-09-07T02:55:56.877Z,99816.78
2018-09-07T02:57:03.138Z,99825.69
2018-09-07T02:58:09.120Z,99818.55
2018-09-07T02:59:15.351Z,99820.48
2018-09-07T03:00:21.637Z,99811.53
2018-09-07T03:01:27.574Z,99813.70
2018-09-07T03:02:33.873Z,99820.73
2018-09-07T03:03:40.140Z,99820.93
2018-09-07T03:04:46.389Z,99820.44
2018-09-07T03:05:52.032Z,99817.83
2018-09-07T03:06:58.302Z,99821.39
2018-09-07T03:08:04.581Z,99822.69
2018-09-07T03:09:10.847Z,99821.20
2018-09-07T03:10:17.121Z,99820.54
2018-09-07T03:11:22.767Z,99827.09
2018-09-07T03:12:28.999Z,99824.64
2018-09-07T03:13:34.869Z,99825.00
2018-09-07T03:14:41.121Z,99827.04
2018-09-07T03:15:47.063Z,99826.36
2018-09-07T03:16:53.354Z,99824.04
2018-09-07T03:17:59.583Z,99821.27
2018-09-07T03:19:05.818Z,99828.44
2018-09-07T03:20:12.082Z,99827.45
2018-09-07T03:21:18.361Z,99834.39
2018-09-07T03:22:24.632Z,99836.27
2018-09-07T03:23:30.916Z,99823.92
2018-09-07T03:24:37.302Z,99830.61
2018-09-07T03:25:43.560Z,99826.34
2018-09-07T03:26:49.813Z,99827.72
2018-09-07T03:27:56.037Z,99834.64
2018-09-07T03:29:02.412Z,99829.45
2018-09-07T03:30:07.936Z,99830.12
2018-09-07T03:31:14.232Z,99821.94
2018-09-07T03:32:20.528Z,99823.51
2018-09-07T03:33:26.793Z,99827.42
2018-09-07T03:34:33.017Z,99824.31
2018-09-07T03:35:39.272Z,99829.49
2018-09-07T03:36:45.512Z,99830.77
2018-09-07T03:37:51.768Z,99834.90
2018-09-07T03:38:59.993Z,99828.52
2018-09-07T03:40:06.727Z,99833.37
2018-09-07T03:41:13.034Z,99838.83
2018-09-07T03:42:19.334Z,99836.01
2018-09-07T03:43:25.565Z,99831.69
2018-09-07T03:44:31.571Z,99830.17
2018-09-07T03:45:37.862Z,99835.95
2018-09-07T03:46:44.133Z,99833.50
2018-09-07T03:47:50.392Z,99838.18
2018-09-07T03:48:56.654Z,99836.32
2018-09-07T03:50:02.920Z,99840.50
2018-09-07T03:51:09.208Z,99837.97
2018-09-07T03:52:15.474Z,99837.53
2018-09-07T03:53:22.017Z,99839.19
2018-09-07T03:54:28.268Z,99836.05
2018-09-07T03:55:34.577Z,99833.73
2018-09-07T03:56:40.930Z,99834.70
2018-09-07T03:57:47.168Z,99837.47
2018-09-07T03:58:53.502Z,99838.00
2018-09-07T03:59:59.751Z,99832.84
2018-09-07T04:01:06.496Z,99838.81
2018-09-07T04:02:12.779Z,99840.48
2018-09-07T04:03:19.065Z,99836.02
2018-09-07T04:04:24.991Z,99839.30
2018-09-07T04:05:31.225Z,99844.16
2018-09-07T04:06:37.582Z,99837.95
2018-09-07T04:07:43.476Z,99836.62
2018-09-07T04:08:49.062Z,99839.70
2018-09-07T04:09:54.908Z,99837.28
2018-09-07T04:11:00.918Z,99835.00
2018-09-07T04:12:07.657Z,99833.27
2018-09-07T04:13:13.659Z,99836.05
2018-09-07T04:14:19.643Z,99839.80
2018-09-07T04:15:25.885Z,99841.69
2018-09-07T04:16:31.868Z,99839.44
2018-09-07T04:17:38.155Z,99839.94
2018-09-07T04:18:45.288Z,99839.26
2018-09-07T04:19:51.598Z,99839.19
2018-09-07T04:20:57.896Z,99838.89
2018-09-07T04:22:04.203Z,99842.84
2018-09-07T04:23:10.455Z,99845.11
2018-09-07T04:24:16.718Z,99839.24
2018-09-07T04:25:22.951Z,99842.34
2018-09-07T04:26:29.304Z,99844.51
2018-09-07T04:27:35.577Z,99842.76
2018-09-07T04:28:41.917Z,99843.08
2018-09-07T04:29:48.151Z,99845.20
2018-09-07T04:30:54.525Z,99845.98
2018-09-07T04:32:00.785Z,99843.26
2018-09-07T04:33:06.743Z,99844.22
2018-09-07T04:34:13.033Z,99843.67
2018-09-07T04:35:19.285Z,99840.05
2018-09-07T04:36:25.563Z,99842.94
2018-09-07T04:37:31.809Z,99845.24
2018-09-07T04:38:38.086Z,99849.70
2018-09-07T04:39:44.320Z,99846.26
2018-09-07T04:40:50.690Z,99846.94
2018-09-07T04:41:56.973Z,99848.61
2018-09-07T04:43:03.196Z,99850.38
2018-09-07T04:44:09.471Z,99848.61
2018-09-07T04:45:15.473Z,99848.91
2018-09-07T04:46:21.787Z,99852.70
2018-09-07T04:47:28.076Z,99853.27
2018-09-07T04:48:34.343Z,99853.45
2018-09-07T04:49:40.283Z,99850.86
2018-09-07T04:50:46.563Z,99849.59
2018-09-07T04:51:52.605Z,99851.14
2018-09-07T04:52:58.861Z,99850.50
2018-09-07T04:54:05.623Z,99853.56
2018-09-07T04:55:11.891Z,99854.85
2018-09-07T04:56:18.160Z,99848.95
2018-09-07T04:57:24.393Z,99853.34
2018-09-07T04:58:30.690Z,99854.60
2018-09-07T04:59:36.957Z,99861.23
2018-09-07T05:00:43.203Z,99861.70
2018-09-07T05:01:50.586Z,99860.92
2018-09-07T05:02:57.093Z,99865.50
2018-09-07T05:04:03.359Z,99865.81
2018-09-07T05:05:08.984Z,99863.69
2018-09-07T05:06:15.309Z,99858.39
2018-09-07T05:07:21.591Z,99860.61
2018-09-07T05:08:27.197Z,99863.59
2018-09-07T05:09:32.457Z,99864.95
2018-09-07T05:10:38.436Z,99868.77
2018-09-07T05:11:44.371Z,99867.50
2018-09-07T05:12:50.628Z,99860.44
2018-09-07T05:13:56.896Z,99865.31
2018-09-07T05:15:02.857Z,99858.80
2018-09-07T05:16:09.110Z,99857.98
2018-09-07T05:17:15.116Z,99862.38
2018-09-07T05:18:21.370Z,99865.14
2018-09-07T05:19:27.627Z,99861.90
2018-09-07T05:20:33.893Z,99862.50
2018-09-07T05:21:39.824Z,99868.93
2018-09-07T05:22:46.086Z,99871.89
2018-09-07T05:23:52.305Z,99869.85
2018-09-07T05:24:58.573Z,99871.73
2018-09-07T05:26:04.797Z,99870.87
2018-09-07T05:27:11.072Z,99871.41
2018-09-07T05:28:17.318Z,99870.83
2018-09-07T05:29:23.591Z,99875.42
2018-09-07T05:30:29.804Z,99876.46
2018-09-07T05:31:36.094Z,99880.33
2018-09-07T05:32:42.549Z,99878.75
2018-09-07T05:33:48.784Z,99874.94
2018-09-07T05:34:54.996Z,99879.42
2018-09-07T05:36:01.204Z,99882.08
2018-09-07T05:37:07.533Z,99883.70
2018-09-07T05:38:13.755Z,99887.39
2018-09-07T05:39:20.003Z,99887.50
2018-09-07T05:40:26.747Z,99892.67
2018-09-07T05:41:33.856Z,99891.17
2018-09-07T05:42:40.152Z,99894.30
2018-09-07T05:43:46.390Z,99893.22
2018-09-07T05:44:52.884Z,99894.92
2018-09-07T05:45:58.602Z,99896.48
2018-09-07T05:47:04.572Z,99900.27
2018-09-07T05:48:10.595Z,99902.86
2018-09-07T05:49:16.820Z,99907.63
2018-09-07T05:50:23.086Z,99905.23
2018-09-07T05:51:29.328Z,99905.75
2018-09-07T05:52:35.597Z,99911.63
2018-09-07T05:53:41.824Z,99910.06
2018-09-07T05:54:48.084Z,99908.68
2018-09-07T05:55:54.306Z,99915.74
2018-09-07T05:57:00.593Z,99918.26
2018-09-07T05:58:06.804Z,99917.58
2018-09-07T05:59:13.035Z,99919.23
2018-09-07T06:00:19.172Z,99920.59
2018-09-07T06:01:25.461Z,99914.72
2018-09-07T06:02:31.873Z,99921.47
2018-09-07T06:03:38.198Z,99921.90
2018-09-07T06:04:44.549Z,99925.67
2018-09-07T06:05:50.874Z,99926.11
2018-09-07T06:06:57.647Z,99930.74
2018-09-07T06:08:04.039Z,99929.75
2018-09-07T06:09:09.989Z,99925.37
2018-09-07T06:10:15.692Z,99929.94
2018-09-07T06:11:21.437Z,99926.22
2018-09-07T06:12:27.463Z,99929.95
2018-09-07T06:13:33.141Z,99924.45
2018-09-07T06:14:40.086Z,99930.89
2018-09-07T06:15:47.337Z,99929.61
2018-09-07T06:16:54.243Z,99929.61
2018-09-07T06:18:01.993Z,99931.51
2018-09-07T06:19:09.990Z,99933.20
2018-09-07T06:20:17.109Z,99931.87
2018-09-07T06:21:24.425Z,99933.43
2018-09-07T06:22:33.167Z,99931.36
2018-09-07T06:23:40.793Z,99944.94
2018-09-07T06:24:47.373Z,99939.72
2018-09-07T06:25:53.453Z,99941.73
2018-09-07T06:26:59.758Z,99946.91
2018-09-07T06:28:05.715Z,99941.03
2018-09-07T06:29:11.944Z,99943.03
2018-09-07T06:30:18.653Z,99937.92
2018-09-07T06:31:26.745Z,99941.53
2018-09-07T06:32:33.140Z,99938.77
2018-09-07T06:33:39.137Z,99944.16
2018-09-07T06:34:45.500Z,99942.42
2018-09-07T06:35:51.580Z,99948.63
2018-09-07T06:36:57.817Z,99944.69
2018-09-07T06:38:04.206Z,99943.35
2018-09-07T06:39:10.189Z,99940.69
2018-09-07T06:40:16.558Z,99941.34
2018-09-07T06:41:22.796Z,99946.98
2018-09-07T06:42:29.024Z,99943.69
2018-09-07T06:43:35.268Z,99944.42
2018-09-07T06:44:41.542Z,99948.63
2018-09-07T06:45:47.774Z,99957.31
2018-09-07T06:46:54.121Z,99951.45
2018-09-07T06:48:00.457Z,99951.30
2018-09-07T06:49:06.909Z,99954.63
2018-09-07T06:50:12.876Z,99954.52
2018-09-07T06:51:18.854Z,99957.64
2018-09-07T06:52:25.160Z,99961.48
2018-09-07T06:53:31.422Z,99955.13
2018-09-07T06:54:37.645Z,99956.69
2018-09-07T06:55:43.876Z,99954.66
2018-09-07T06:56:50.984Z,99961.16
2018-09-07T06:57:56.918Z,99962.36
2018-09-07T06:59:03.170Z,99968.38
2018-09-07T07:00:10.370Z,99971.20
2018-09-07T07:01:17.370Z,99967.45
2018-09-07T07:02:23.654Z,99973.55
2018-09-07T07:03:30.150Z,99972.28
2018-09-07T07:04:36.389Z,99977.57
2018-09-07T07:05:42.614Z,99979.49
2018-09-07T07:06:48.829Z,99975.17
2018-09-07T07:07:55.024Z,99979.97
2018-09-07T07:09:01.294Z,99975.64
2018-09-07T07:10:06.900Z,99979.03
2018-09-07T07:11:13.160Z,99974.58
2018-09-07T07:12:19.392Z,99971.22
2018-09-07T07:13:25.716Z,99978.59
2018-09-07T07:14:32.105Z,99978.70
2018-09-07T07:15:38.544Z,99976.19
2018-09-07T07:16:44.793Z,99983.53
2018-09-07T07:17:51.010Z,99980.77
2018-09-07T07:18:56.967Z,99979.28
2018-09-07T07:20:03.188Z,99985.48
2018-09-07T07:21:09.426Z,99981.98
2018-09-07T07:22:15.660Z,99988.42
2018-09-07T07:23:22.600Z,99982.52
2018-09-07T07:24:28.923Z,99977.91
2018-09-07T07:25:35.204Z,99980.14
2018-09-07T07:26:41.426Z,99986.74
2018-09-07T07:27:47.650Z,99985.02
2018-09-07T07:28:54.155Z,99986.67
2018-09-07T07:30:00.505Z,99980.36
2018-09-07T07:31:07.300Z,99981.72
2018-09-07T07:32:13.557Z,99982.43
2018-09-07T07:33:19.814Z,99982.67
2018-09-07T07:34:26.146Z,99983.36
2018-09-07T07:35:32.417Z,99991.58
2018-09-07T07:36:38.678Z,99993.94
2018-09-07T07:37:44.935Z,99993.59
2018-09-07T07:38:51.208Z,99992.63
2018-09-07T07:39:57.499Z,99991.13
2018-09-07T07:41:04.241Z,99988.05
2018-09-07T07:42:10.576Z,99990.23
2018-09-07T07:43:17.689Z,99993.48
2018-09-07T07:44:23.974Z,99994.87
2018-09-07T07:45:30.207Z,99995.77
2018-09-07T07:46:36.478Z,99995.88
2018-09-07T07:47:42.774Z,99998.31
2018-09-07T07:48:49.139Z,99991.41
2018-09-07T07:49:55.421Z,100001.04
2018-09-07T07:51:02.554Z,99998.44
2018-09-07T07:52:08.809Z,99999.33
2018-09-07T07:53:15.206Z,100003.06
2018-09-07T07:54:21.543Z,99994.13
2018-09-07T07:55:28.302Z,99999.60
2018-09-07T07:56:35.560Z,99998.30
2018-09-07T07:57:42.500Z,99995.17
2018-09-07T07:58:48.994Z,99998.67
2018-09-07T07:59:55.615Z,100001.10
2018-09-07T08:01:01.872Z,100002.77
2018-09-07T08:02:07.706Z,100002.55
2018-09-07T08:03:13.606Z,100003.19
2018-09-07T08:04:19.896Z,100004.41
2018-09-07T08:05:26.172Z,100003.44
2018-09-07T08:06:38.401Z,100012.38
2018-09-07T08:07:44.651Z,100003.92
2018-09-07T08:08:50.890Z,100005.08
2018-09-07T08:09:57.180Z,100011.59
2018-09-07T08:11:03.435Z,100011.73
2018-09-07T08:12:09.319Z,100015.72
2018-09-07T08:13:15.562Z,100012.48
2018-09-07T08:14:21.876Z,100014.50
2018-09-07T08:15:28.312Z,100014.97
2018-09-07T08:16:34.188Z,100014.77
2018-09-07T08:17:40.401Z,100019.61
2018-09-07T08:18:46.630Z,100013.91
2018-09-07T08:19:53.505Z,100013.82
2018-09-07T08:20:59.736Z,100016.95
2018-09-07T08:22:05.670Z,100015.77
2018-09-07T08:23:11.903Z,100016.16
2018-09-07T08:24:18.173Z,100015.62
2018-09-07T08:25:24.433Z,100019.18
2018-09-07T08:26:30.691Z,100018.26
2018-09-07T08:27:36.944Z,100021.28
2018-09-07T08:28:42.843Z,100026.24
2018-09-07T08:29:49.106Z,100021.66
2018-09-07T08:30:55.380Z,100028.05
2018-09-07T08:32:01.647Z,100028.26
2018-09-07T08:33:07.957Z,100033.83
2018-09-07T08:34:14.386Z,100027.83
2018-09-07T08:35:20.666Z,100030.95
2018-09-07T08:36:26.897Z,100024.63
2018-09-07T08:37:32.785Z,100032.59
2018-09-07T08:38:39.037Z,100040.04
2018-09-07T08:39:45.255Z,100035.28
2018-09-07T08:40:51.251Z,100033.64
2018-09-07T08:41:56.728Z,100038.81
2018-09-07T08:43:02.328Z,100041.17
2018-09-07T08:44:07.903Z,100036.80
2018-09-07T08:45:13.805Z,100037.41
2018-09-07T08:46:19.808Z,100034.91
2018-09-07T08:47:26.668Z,100031.68
2018-09-07T08:48:32.920Z,100042.16
2018-09-07T08:49:39.630Z,100039.34
2018-09-07T08:50:45.256Z,100035.24
2018-09-07T08:51:51.408Z,100038.59
2018-09-07T08:52:57.623Z,100043.61
2018-09-07T08:54:03.391Z,100041.02
2018-09-07T08:55:09.318Z,100036.74
2018-09-07T08:56:15.561Z,100044.08
2018-09-07T08:57:21.808Z,100039.45
2018-09-07T08:58:28.070Z,100036.28
2018-09-07T08:59:34.349Z,100042.42
2018-09-07T09:00:40.345Z,100038.91
2018-09-07T09:01:46.351Z,100043.42
2018-09-07T09:02:52.866Z,100046.84
2018-09-07T09:03:59.096Z,100045.78
2018-09-07T09:05:05.991Z,100046.56
2018-09-07T09:06:12.228Z,100047.84
2018-09-07T09:07:18.596Z,100045.66
2018-09-07T09:08:24.812Z,100048.88
2018-09-07T09:09:32.056Z,100058.22
2018-09-07T09:10:38.289Z,100052.98
2018-09-07T09:11:44.512Z,100057.80
2018-09-07T09:12:50.728Z,100052.84
2018-09-07T09:13:56.982Z,100055.86
2018-09-07T09:15:03.216Z,100055.38
2018-09-07T09:16:10.413Z,100055.17
2018-09-07T09:17:16.645Z,100053.47
2018-09-07T09:18:22.884Z,100052.45
2018-09-07T09:19:29.128Z,100056.23
2018-09-07T09:20:35.059Z,100060.37
2018-09-07T09:21:41.293Z,100060.59
2018-09-07T09:22:47.522Z,100059.62
2018-09-07T09:23:53.804Z,100064.16
2018-09-07T09:25:00.053Z,100057.97
2018-09-07T09:26:05.981Z,100059.55
2018-09-07T09:27:12.246Z,100061.37
2018-09-07T09:28:18.263Z,100068.41
2018-09-07T09:29:29.475Z,100069.83
2018-09-07T09:30:35.721Z,100064.81
2018-09-07T09:31:41.995Z,100066.53
2018-09-07T09:32:48.297Z,100061.61
2018-09-07T09:33:54.748Z,100065.48
2018-09-07T09:35:00.658Z,100069.48
2018-09-07T09:36:06.633Z,100065.50
2018-09-07T09:37:12.851Z,100072.45
2018-09-07T09:38:19.411Z,100068.56
2018-09-07T09:39:25.691Z,100074.30
2018-09-07T09:40:31.670Z,100069.81
2018-09-07T09:41:37.921Z,100068.97
2018-09-07T09:42:44.189Z,100071.34
2018-09-07T09:43:50.785Z,100068.53
2018-09-07T09:44:57.044Z,100070.55
2018-09-07T09:46:02.629Z,100066.20
2018-09-07T09:47:08.584Z,100067.78
2018-09-07T09:48:15.901Z,100063.81
2018-09-07T09:49:22.370Z,100061.55
2018-09-07T09:50:28.565Z,100067.81
2018-09-07T09:51:34.803Z,100060.22
2018-09-07T09:52:41.092Z,100067.57
2018-09-07T09:53:47.173Z,100064.66
2018-09-07T09:54:53.442Z,100066.63
2018-09-07T09:55:59.691Z,100065.87
2018-09-07T09:57:06.634Z,100064.44
2018-09-07T09:58:15.467Z,100067.28
2018-09-07T09:59:22.788Z,100067.61
2018-09-07T10:00:29.966Z,100064.41
2018-09-07T10:03:08.408Z,100060.43
2018-09-07T10:04:14.859Z,100068.23
2018-09-07T10:05:21.303Z,100067.43
2018-09-07T10:06:29.116Z,100066.83
2018-09-07T10:07:35.869Z,100062.69
2018-09-07T10:08:42.776Z,100066.33
2018-09-07T10:09:50.819Z,100066.83
2018-09-07T10:10:57.783Z,100062.28
2018-09-07T10:12:04.501Z,100061.21
2018-09-07T10:13:10.945Z,100062.36
2018-09-07T10:14:19.770Z,100068.94
2018-09-07T10:15:27.764Z,100068.09
2018-09-07T10:16:35.049Z,100072.11
2018-09-07T10:17:42.628Z,100075.98
2018-09-07T10:18:50.065Z,100070.09
2018-09-07T10:19:57.327Z,100070.69
2018-09-07T10:21:03.797Z,100067.41
2018-09-07T10:22:10.188Z,100069.56
2018-09-07T10:23:18.058Z,100068.74
2018-09-07T10:24:26.088Z,100065.86
2018-09-07T10:25:33.329Z,100069.19
2018-09-07T10:26:40.263Z,100070.59
2018-09-07T10:27:47.003Z,100070.63
2018-09-07T10:28:54.318Z,100068.83
2018-09-07T10:30:02.060Z,100063.97
2018-09-07T10:31:08.988Z,100067.55
2018-09-07T10:32:15.465Z,100065.41
2018-09-07T10:33:22.182Z,100062.70
2018-09-07T10:34:29.491Z,100065.18
2018-09-07T10:35:36.797Z,100057.92
2018-09-07T10:36:44.135Z,100068.47
2018-09-07T10:37:52.254Z,100057.82
2018-09-07T10:39:04.840Z,100060.72
2018-09-07T10:40:11.928Z,100064.43
2018-09-07T10:41:20.799Z,100059.32
2018-09-07T10:42:28.758Z,100063.95
2018-09-07T10:43:37.096Z,100062.27
2018-09-07T10:44:46.813Z,100073.44
2018-09-07T10:45:54.194Z,100069.05
2018-09-07T10:47:00.743Z,100072.45
2018-09-07T10:48:09.413Z,100062.45
2018-09-07T10:49:17.607Z,100064.47
2018-09-07T10:50:24.634Z,100064.89
2018-09-07T10:51:31.093Z,100065.60
2018-09-07T10:52:37.332Z,100064.64
2018-09-07T10:53:43.539Z,100071.17
2018-09-07T10:54:50.596Z,100075.95
2018-09-07T10:55:57.041Z,100075.23
2018-09-07T10:57:03.826Z,100075.64
2018-09-07T10:58:10.769Z,100076.06
2018-09-07T10:59:19.914Z,100068.95
2018-09-07T11:00:26.857Z,100077.63
2018-09-07T11:01:33.678Z,100084.20
2018-09-07T11:02:39.549Z,100066.66
2018-09-07T11:03:48.613Z,100069.39
2018-09-07T11:04:56.737Z,100067.99
2018-09-07T11:06:03.501Z,100069.62
2018-09-07T11:07:10.542Z,100070.33
2018-09-07T11:08:17.105Z,100067.89
2018-09-07T11:09:25.553Z,100071.98
2018-09-07T11:10:32.749Z,100072.91
2018-09-07T11:11:38.992Z,100067.97
2018-09-07T11:12:45.400Z,100066.38
2018-09-07T11:13:53.068Z,100062.81
2018-09-07T11:15:00.375Z,100065.90
2018-09-07T11:16:07.812Z,100069.28
2018-09-07T11:17:15.527Z,100071.39
2018-09-07T11:18:23.230Z,100073.33
2018-09-07T11:19:30.180Z,100069.62
2018-09-07T11:20:36.692Z,100071.39
2018-09-07T11:21:44.395Z,100075.02
2018-09-07T11:22:52.344Z,100073.75
2018-09-07T11:24:00.768Z,100073.09
2018-09-07T11:25:09.380Z,100077.30
2018-09-07T11:26:19.478Z,100073.50
2018-09-07T11:27:27.067Z,100077.98
2018-09-07T11:28:35.314Z,100084.28
2018-09-07T11:29:43.198Z,100081.59
2018-09-07T11:30:52.122Z,100079.24
2018-09-07T11:32:00.330Z,100076.61
2018-09-07T11:33:07.053Z,100078.17
2018-09-07T11:34:14.731Z,100076.59
2018-09-07T11:35:22.251Z,100069.95
2018-09-07T11:36:29.421Z,100076.88
2018-09-07T11:37:36.173Z,100078.34
2018-09-07T11:38:42.774Z,100076.73
2018-09-07T11:39:49.003Z,100076.20
2018-09-07T11:40:55.245Z,100073.44
2018-09-07T11:42:01.660Z,100080.55
2018-09-07T11:43:07.846Z,100079.62
2018-09-07T11:44:13.840Z,100080.31
2018-09-07T11:45:20.108Z,100073.27
2018-09-07T11:46:25.650Z,100078.46
2018-09-07T11:47:31.429Z,100079.69
2018-09-07T11:48:37.732Z,100078.13
2018-09-07T11:49:45.398Z,100075.08
2018-09-07T11:50:51.585Z,100079.13
2018-09-07T11:52:04.252Z,100080.02
2018-09-07T11:53:10.456Z,100075.13
2018-09-07T11:54:17.020Z,100077.69
2018-09-07T11:55:24.488Z,100074.13
2018-09-07T11:56:31.345Z,100066.08
2018-09-07T11:57:37.956Z,100068.67
2018-09-07T11:58:44.202Z,100065.74
2018-09-07T11:59:50.392Z,100068.77
2018-09-07T12:00:56.697Z,100067.84
2018-09-07T12:02:03.893Z,100064.35
2018-09-07T12:03:11.375Z,100063.95
2018-09-07T12:04:18.297Z,100063.58
2018-09-07T12:05:24.699Z,100068.83
2018-09-07T12:06:31.181Z,100071.13
2018-09-07T12:07:40.146Z,100074.57
2018-09-07T12:08:46.400Z,100072.02
2018-09-07T12:09:54.035Z,100072.33
2018-09-07T12:10:59.946Z,100064.83
2018-09-07T12:12:08.184Z,100073.47
2018-09-07T12:13:14.721Z,100071.42
2018-09-07T12:14:21.477Z,100073.30
2018-09-07T12:15:28.122Z,100072.27
2018-09-07T12:16:34.352Z,100066.63
2018-09-07T12:17:40.888Z,100064.97
2018-09-07T12:18:47.140Z,100063.67
2018-09-07T12:19:53.848Z,100070.81
2018-09-07T12:21:00.792Z,100068.22
2018-09-07T12:22:09.369Z,100061.72
2018-09-07T12:23:16.811Z,100057.87
2018-09-07T12:24:22.578Z,100064.87
2018-09-07T12:25:29.498Z,100065.47
2018-09-07T12:26:35.344Z,100060.61
2018-09-07T12:27:41.677Z,100055.53
2018-09-07T12:28:47.180Z,100055.95
2018-09-07T12:29:52.718Z,100054.45
2018-09-07T12:30:58.875Z,100060.33
2018-09-07T12:32:04.791Z,100068.55
2018-09-07T12:33:14.832Z,100067.64
2018-09-07T12:34:21.210Z,100072.53
2018-09-07T12:35:27.455Z,100056.67
2018-09-07T12:36:32.988Z,100063.41
2018-09-07T12:37:39.506Z,100059.04
2018-09-07T12:38:45.939Z,100053.40
2018-09-07T12:39:52.503Z,100055.44
2018-09-07T12:40:58.881Z,100052.65
2018-09-07T12:42:05.054Z,100049.41
2018-09-07T12:43:11.439Z,100053.63
2018-09-07T12:44:18.927Z,100057.17
2018-09-07T12:45:25.032Z,100049.35
2018-09-07T12:46:30.315Z,100041.76
2018-09-07T12:47:36.049Z,100044.14
2018-09-07T12:48:41.836Z,100046.23
2018-09-07T12:49:47.362Z,100049.35
2018-09-07T12:50:52.690Z,100049.28
2018-09-07T12:51:58.524Z,100052.50
2018-09-07T12:53:04.035Z,100047.66